Time;durP1;ratioP1;P1;durP2;ratioP2;P2;SDS_P1;SDS_P2;PMS_P1;PMS_P2;Temp;Humidity;BMP_temperature;BMP_pressure;BME280_temperature;BME280_humidity;BME280_pressure;Samples;Min_cycle;Max_cycle;Signal;HPM_P1;HPM_P2
2021/07/27 00:01:12;;;;;;;14.80;11.97;;;19.70;96.80;;;;;;5054661;28;20222;-82
2021/07/27 00:03:38;;;;;;;16.50;13.37;;;19.60;97.20;;;;;;5054233;28;20167;-82
2021/07/27 00:06:05;;;;;;;15.20;13.53;;;19.60;97.20;;;;;;5053580;28;20634;-82
2021/07/27 00:08:32;;;;;;;16.97;12.93;;;19.60;97.50;;;;;;5052745;28;20580;-82
2021/07/27 00:11:01;;;;;;;16.47;12.70;;;19.40;97.40;;;;;;5055194;28;20340;-82
2021/07/27 00:13:27;;;;;;;15.07;13.27;;;19.30;97.90;;;;;;5054364;28;20176;-78
2021/07/27 00:15:53;;;;;;;15.97;12.67;;;19.30;98.00;;;;;;5053392;28;20166;-80
2021/07/27 00:18:18;;;;;;;16.20;12.73;;;19.30;97.90;;;;;;5053251;28;20181;-80
2021/07/27 00:20:45;;;;;;;16.53;12.87;;;19.20;97.50;;;;;;5053430;28;20189;-77
2021/07/27 00:23:11;;;;;;;17.00;13.73;;;19.20;97.60;;;;;;5052978;28;20190;-78
2021/07/27 00:25:38;;;;;;;14.90;13.40;;;19.20;97.90;;;;;;5053533;28;20228;-81
2021/07/27 00:28:04;;;;;;;18.27;14.37;;;19.10;98.10;;;;;;5053354;28;20690;-82
2021/07/27 00:30:30;;;;;;;14.90;13.20;;;19.10;98.20;;;;;;5053520;28;20235;-82
2021/07/27 00:32:56;;;;;;;17.33;14.07;;;19.10;98.40;;;;;;5055956;28;20174;-81
2021/07/27 00:35:22;;;;;;;17.53;14.63;;;19.00;98.70;;;;;;5052199;28;20264;-81
2021/07/27 00:37:58;;;;;;;17.03;14.27;;;19.00;99.00;;;;;;5053484;28;20673;-78
2021/07/27 00:40:23;;;;;;;17.87;15.60;;;19.00;98.70;;;;;;5053594;28;20259;-78
2021/07/27 00:42:49;;;;;;;18.47;14.70;;;19.00;99.00;;;;;;5053045;28;20202;-79
2021/07/27 00:45:16;;;;;;;19.33;15.93;;;18.90;98.90;;;;;;5053387;28;20181;-79
2021/07/27 00:47:42;;;;;;;22.10;16.37;;;19.00;99.20;;;;;;5053466;28;20245;-79
2021/07/27 00:50:10;;;;;;;20.57;16.77;;;18.90;99.40;;;;;;5053067;28;20196;-78
2021/07/27 00:52:40;;;;;;;19.83;15.50;;;18.90;99.40;;;;;;5053426;28;20257;-80
2021/07/27 00:55:06;;;;;;;18.53;16.53;;;19.00;99.20;;;;;;5052988;28;20168;-80
2021/07/27 00:57:32;;;;;;;20.50;16.17;;;18.90;98.80;;;;;;5050743;28;20207;-79
2021/07/27 00:59:58;;;;;;;21.13;16.23;;;18.90;98.70;;;;;;5052990;28;20167;-79
2021/07/27 01:02:24;;;;;;;22.27;16.47;;;19.00;98.70;;;;;;5053323;28;20171;-81
2021/07/27 01:04:49;;;;;;;19.43;17.00;;;18.90;98.50;;;;;;5053034;28;20168;-80
2021/07/27 01:07:15;;;;;;;21.70;17.90;;;19.00;97.60;;;;;;5052236;28;20174;-79
2021/07/27 01:09:41;;;;;;;20.87;17.60;;;19.00;97.60;;;;;;5053286;28;20575;-80
2021/07/27 01:12:07;;;;;;;24.23;18.47;;;19.00;97.50;;;;;;5053387;28;20284;-81
2021/07/27 01:14:33;;;;;;;24.47;18.40;;;18.90;97.90;;;;;;5054129;28;20180;-83
2021/07/27 01:16:58;;;;;;;22.90;17.93;;;18.90;97.50;;;;;;5054447;28;20173;-81
2021/07/27 01:43:39;;;;;;;24.27;20.33;;;18.70;97.70;;;;;;5057020;28;20164;-80
2021/07/27 01:46:05;;;;;;;24.10;20.40;;;18.80;96.80;;;;;;5056579;28;20176;-78
2021/07/27 01:48:31;;;;;;;26.77;21.17;;;19.00;96.30;;;;;;5059618;28;20306;-80
2021/07/27 01:51:21;;;;;;;23.23;19.60;;;19.00;95.90;;;;;;5058617;28;20202;-82
2021/07/27 01:53:55;;;;;;;23.63;20.40;;;18.90;95.40;;;;;;5054722;28;20523;-80
2021/07/27 01:56:23;;;;;;;24.27;20.27;;;18.90;95.60;;;;;;5056109;28;20669;-79
2021/07/27 01:58:50;;;;;;;23.07;20.10;;;18.90;95.50;;;;;;5057187;28;20173;-82
2021/07/27 02:01:18;;;;;;;24.53;20.30;;;18.90;95.50;;;;;;5056559;28;20637;-82
2021/07/27 02:03:44;;;;;;;23.80;20.33;;;18.80;95.60;;;;;;5063510;28;20172;-79
2021/07/27 02:06:09;;;;;;;24.67;20.60;;;18.80;96.20;;;;;;5080797;28;20181;-78
2021/07/27 02:08:35;;;;;;;22.37;19.50;;;18.90;95.70;;;;;;5080921;28;20158;-79
2021/07/27 02:11:04;;;;;;;24.57;19.33;;;18.80;95.80;;;;;;5079119;28;20207;-78
2021/07/27 02:13:31;;;;;;;25.30;19.23;;;18.80;95.90;;;;;;5077824;28;20183;-78
2021/07/27 02:15:59;;;;;;;22.50;19.80;;;18.80;95.90;;;;;;5079290;28;20169;-79
2021/07/27 02:18:28;;;;;;;23.80;19.20;;;18.80;96.10;;;;;;5069148;28;20664;-81
2021/07/27 02:20:53;;;;;;;23.10;19.43;;;18.80;95.60;;;;;;5054387;28;20336;-79
2021/07/27 02:23:22;;;;;;;21.00;18.50;;;18.80;95.40;;;;;;5056404;28;20202;-81
2021/07/27 02:25:49;;;;;;;22.17;18.93;;;18.80;95.30;;;;;;5056264;28;20161;-81
2021/07/27 02:28:16;;;;;;;22.77;18.87;;;18.80;95.60;;;;;;5056336;28;20565;-78
2021/07/27 02:31:07;;;;;;;21.47;18.50;;;18.80;95.50;;;;;;5056189;28;20227;-78
2021/07/27 02:33:36;;;;;;;21.27;18.90;;;18.90;95.30;;;;;;5055681;28;20278;-80
2021/07/27 02:36:02;;;;;;;22.77;18.17;;;19.00;94.30;;;;;;5055881;28;20264;-81
2021/07/27 02:38:28;;;;;;;21.90;18.33;;;19.10;93.10;;;;;;5055334;28;20208;-82
2021/07/27 02:40:54;;;;;;;23.17;18.43;;;18.90;93.60;;;;;;5054491;28;20169;-80
2021/07/27 02:43:20;;;;;;;20.27;17.53;;;18.80;94.30;;;;;;5055735;28;20232;-81
2021/07/27 02:45:45;;;;;;;23.53;18.70;;;18.80;94.50;;;;;;5056315;28;20161;-78
2021/07/27 02:48:11;;;;;;;23.40;17.67;;;18.70;95.20;;;;;;5059961;28;20314;-79
2021/07/27 02:50:37;;;;;;;21.87;18.10;;;18.70;95.50;;;;;;5056108;28;20293;-79
2021/07/27 02:53:03;;;;;;;23.00;19.10;;;18.70;95.70;;;;;;5060458;28;20195;-78
2021/07/27 02:55:28;;;;;;;20.97;18.50;;;18.80;95.60;;;;;;5068281;28;20180;-81
2021/07/27 02:57:54;;;;;;;23.00;18.70;;;18.90;95.50;;;;;;5062505;28;20230;-79
2021/07/27 03:00:20;;;;;;;22.33;19.93;;;18.90;95.10;;;;;;5060206;28;20166;-79
2021/07/27 03:02:46;;;;;;;22.07;18.63;;;19.00;94.90;;;;;;5057888;28;20233;-76
2021/07/27 03:05:14;;;;;;;21.57;19.17;;;19.00;94.40;;;;;;5061015;28;20215;-79
2021/07/27 03:10:19;;;;;;;24.07;18.93;;;19.20;92.70;;;;;;5056472;28;20198;-79
2021/07/27 03:12:46;;;;;;;22.07;19.03;;;19.30;92.50;;;;;;5053678;28;20179;-82
2021/07/27 03:15:13;;;;;;;23.43;19.37;;;19.30;91.90;;;;;;5054964;28;20545;-81
2021/07/27 03:17:39;;;;;;;22.33;19.43;;;19.40;91.10;;;;;;5053627;28;20199;-80
2021/07/27 03:20:09;;;;;;;20.30;17.63;;;19.30;91.00;;;;;;5053071;28;20205;-82
2021/07/27 03:22:36;;;;;;;22.30;19.70;;;19.40;90.70;;;;;;5054309;28;20219;-79
2021/07/27 03:25:01;;;;;;;23.20;18.17;;;19.30;91.00;;;;;;5054363;28;20231;-80
2021/07/27 03:27:27;;;;;;;23.83;18.23;;;19.20;91.50;;;;;;5053239;28;20584;-79
2021/07/27 03:29:53;;;;;;;19.67;17.07;;;19.00;93.10;;;;;;5054751;28;20267;-79
2021/07/27 03:32:19;;;;;;;21.37;17.80;;;18.90;94.50;;;;;;5066731;28;20191;-81
2021/07/27 03:34:45;;;;;;;21.47;17.97;;;18.90;95.40;;;;;;5052747;28;20216;-79
2021/07/27 03:37:11;;;;;;;22.20;17.73;;;18.80;96.20;;;;;;5052738;28;20315;-81
2021/07/27 03:39:36;;;;;;;21.67;18.67;;;18.80;96.50;;;;;;5054053;28;20176;-79
2021/07/27 03:42:02;;;;;;;21.83;17.13;;;18.70;97.40;;;;;;5054229;28;20165;-81
2021/07/27 03:44:28;;;;;;;23.23;17.73;;;18.70;98.10;;;;;;5054647;28;20650;-81
2021/07/27 03:46:54;;;;;;;21.17;17.93;;;18.70;98.60;;;;;;5054029;28;20187;-80
2021/07/27 03:49:20;;;;;;;25.33;17.97;;;18.70;98.70;;;;;;5055749;28;20184;-81
2021/07/27 03:51:48;;;;;;;22.50;17.83;;;18.70;99.10;;;;;;5056508;28;20295;-80
2021/07/27 03:54:14;;;;;;;21.67;18.03;;;18.60;99.20;;;;;;5058003;28;20167;-81
2021/07/27 03:56:40;;;;;;;20.37;16.80;;;18.70;99.50;;;;;;5059130;28;20187;-81
2021/07/27 03:59:05;;;;;;;20.83;16.47;;;18.60;99.90;;;;;;5056241;28;20228;-82
2021/07/27 04:01:31;;;;;;;21.70;16.33;;;18.60;99.90;;;;;;5057463;28;20229;-79
2021/07/27 04:03:57;;;;;;;21.13;17.20;;;18.60;99.90;;;;;;5054757;28;20182;-81
2021/07/27 04:06:23;;;;;;;21.37;16.70;;;18.50;99.90;;;;;;5055592;28;20206;-78
2021/07/27 04:08:48;;;;;;;19.73;16.27;;;18.60;99.90;;;;;;5058503;28;20227;-80
2021/07/27 04:11:14;;;;;;;19.23;17.20;;;18.60;99.90;;;;;;5055674;28;20229;-81
2021/07/27 04:13:40;;;;;;;18.87;15.80;;;18.60;99.90;;;;;;5053139;28;20223;-79
2021/07/27 04:16:06;;;;;;;18.90;16.20;;;18.50;99.90;;;;;;5056395;28;20178;-78
2021/07/27 04:18:31;;;;;;;19.47;16.00;;;18.70;99.90;;;;;;5061084;28;20175;-80
2021/07/27 04:20:59;;;;;;;21.57;16.27;;;18.70;99.90;;;;;;5060900;28;20178;-80
2021/07/27 04:23:24;;;;;;;22.30;15.70;;;18.80;99.90;;;;;;5055595;28;20559;-78
2021/07/27 04:25:50;;;;;;;20.27;15.60;;;18.90;99.70;;;;;;5054827;28;20173;-79
2021/07/27 04:28:16;;;;;;;21.37;15.90;;;18.90;99.30;;;;;;5051976;28;20672;-81
2021/07/27 04:30:41;;;;;;;21.90;15.93;;;18.70;99.70;;;;;;5053137;28;20289;-79
2021/07/27 04:33:07;;;;;;;19.30;15.47;;;18.60;99.90;;;;;;5053427;28;20170;-82
2021/07/27 04:35:32;;;;;;;21.47;15.57;;;18.60;99.90;;;;;;5051914;28;20204;-79
2021/07/27 04:37:58;;;;;;;20.97;15.20;;;18.60;99.90;;;;;;5057079;28;20173;-78
2021/07/27 04:40:24;;;;;;;17.10;14.43;;;18.60;99.90;;;;;;5066355;28;20175;-79
2021/07/27 04:42:50;;;;;;;17.20;15.03;;;18.60;99.90;;;;;;5062847;28;20652;-78
2021/07/27 04:45:16;;;;;;;17.00;14.30;;;18.60;99.90;;;;;;5057911;28;20244;-77
2021/07/27 04:47:42;;;;;;;16.73;14.77;;;18.60;99.90;;;;;;5057284;28;20186;-78
2021/07/27 04:50:08;;;;;;;19.97;14.70;;;18.70;99.90;;;;;;5056949;28;20531;-78
2021/07/27 04:52:35;;;;;;;16.43;14.70;;;18.60;99.90;;;;;;5056555;28;20260;-78
2021/07/27 04:55:01;;;;;;;17.03;14.73;;;18.70;99.90;;;;;;5052766;28;20173;-78
2021/07/27 04:57:27;;;;;;;17.33;14.87;;;18.70;99.90;;;;;;5052839;28;20170;-81
2021/07/27 04:59:52;;;;;;;18.17;14.13;;;18.70;99.90;;;;;;5053087;28;20654;-82
2021/07/27 05:02:18;;;;;;;20.13;13.70;;;18.70;99.90;;;;;;5057617;28;20166;-79
2021/07/27 05:04:45;;;;;;;16.60;13.57;;;18.80;99.90;;;;;;5055213;28;20174;-78
2021/07/27 05:07:11;;;;;;;18.43;14.83;;;18.70;99.90;;;;;;5056110;28;20162;-79
2021/07/27 05:09:37;;;;;;;18.83;15.90;;;18.70;99.90;;;;;;5056957;28;20195;-78
2021/07/27 05:12:03;;;;;;;16.00;14.30;;;18.80;99.90;;;;;;5057628;28;20202;-81
2021/07/27 05:14:30;;;;;;;18.00;14.50;;;18.80;99.90;;;;;;5057487;28;20166;-82
2021/07/27 05:16:55;;;;;;;18.10;15.07;;;18.80;99.90;;;;;;5056097;28;20166;-80
2021/07/27 05:19:22;;;;;;;17.70;14.20;;;18.80;99.90;;;;;;5056458;28;20764;-78
2021/07/27 05:21:50;;;;;;;18.97;15.33;;;19.00;99.90;;;;;;5056525;28;20189;-82
2021/07/27 05:24:15;;;;;;;15.33;13.53;;;18.90;99.90;;;;;;5055270;28;20197;-81
2021/07/27 05:26:41;;;;;;;19.43;15.07;;;19.00;99.90;;;;;;5057374;28;20538;-78
2021/07/27 05:29:07;;;;;;;20.60;15.20;;;19.00;99.90;;;;;;5055497;28;20170;-79
2021/07/27 05:31:32;;;;;;;18.10;15.80;;;19.00;99.60;;;;;;5054956;28;20252;-78
2021/07/27 05:33:58;;;;;;;20.40;15.57;;;19.00;99.40;;;;;;5056043;28;20171;-79
2021/07/27 05:36:24;;;;;;;16.33;14.60;;;19.00;99.90;;;;;;5056348;28;20165;-80
2021/07/27 05:38:51;;;;;;;21.53;15.50;;;19.00;99.70;;;;;;5056276;28;20240;-80
2021/07/27 05:41:17;;;;;;;17.73;15.83;;;19.10;99.60;;;;;;5055908;28;20171;-78
2021/07/27 05:43:44;;;;;;;22.10;15.27;;;19.10;99.40;;;;;;5056807;28;20652;-80
2021/07/27 05:46:09;;;;;;;18.50;15.57;;;19.20;99.10;;;;;;5056196;28;20233;-79
2021/07/27 05:48:35;;;;;;;20.33;15.00;;;19.20;98.60;;;;;;5056977;28;20175;-78
2021/07/27 05:51:03;;;;;;;17.43;14.33;;;19.20;98.40;;;;;;5056199;28;20657;-81
2021/07/27 05:53:29;;;;;;;18.30;15.27;;;19.30;97.90;;;;;;5054810;28;20182;-82
2021/07/27 05:55:57;;;;;;;18.90;15.53;;;19.40;97.70;;;;;;5056721;28;20166;-81
2021/07/27 05:58:23;;;;;;;17.13;15.23;;;19.40;97.50;;;;;;5055399;28;20248;-79
2021/07/27 06:00:48;;;;;;;19.90;15.60;;;19.50;96.80;;;;;;5056190;28;20210;-79
2021/07/27 06:03:14;;;;;;;19.57;16.47;;;19.40;96.30;;;;;;5056187;28;20170;-78
2021/07/27 06:05:39;;;;;;;18.07;15.23;;;19.40;96.70;;;;;;5056450;28;20178;-80
2021/07/27 06:08:05;;;;;;;18.80;15.53;;;19.40;96.70;;;;;;5056746;28;20172;-79
2021/07/27 06:10:31;;;;;;;18.27;15.73;;;19.50;96.30;;;;;;5055559;28;20206;-79
2021/07/27 06:12:56;;;;;;;20.97;16.13;;;19.50;96.00;;;;;;5055255;28;20186;-80
2021/07/27 06:15:22;;;;;;;22.43;16.20;;;19.40;96.30;;;;;;5055734;28;20264;-78
2021/07/27 06:17:48;;;;;;;20.27;17.73;;;19.40;96.70;;;;;;5054382;28;20170;-78
2021/07/27 06:20:14;;;;;;;21.53;17.10;;;19.40;97.00;;;;;;5055784;28;20536;-84
2021/07/27 06:22:39;;;;;;;17.73;15.77;;;19.40;96.40;;;;;;5055695;28;20182;-84
2021/07/27 06:25:10;;;;;;;21.10;17.00;;;19.40;96.40;;;;;;5054315;28;20559;-77
2021/07/27 06:27:36;;;;;;;18.37;16.27;;;19.60;95.90;;;;;;5054134;28;20175;-83
2021/07/27 06:30:03;;;;;;;21.63;16.43;;;19.60;94.90;;;;;;5055602;28;20185;-80
2021/07/27 06:32:29;;;;;;;24.33;17.40;;;19.70;94.60;;;;;;5056571;28;20234;-80
2021/07/27 06:34:55;;;;;;;19.47;16.03;;;19.80;93.80;;;;;;5079228;28;20163;-80
2021/07/27 06:37:20;;;;;;;21.13;16.90;;;19.80;93.70;;;;;;5080266;28;20173;-78
2021/07/27 06:39:46;;;;;;;20.50;15.63;;;19.80;92.00;;;;;;5080160;28;20160;-79
2021/07/27 06:42:12;;;;;;;19.90;17.23;;;19.90;92.20;;;;;;5079826;28;20158;-79
2021/07/27 06:44:38;;;;;;;20.80;18.00;;;19.90;91.90;;;;;;5076439;28;20168;-82
2021/07/27 06:47:04;;;;;;;18.03;15.17;;;19.90;91.80;;;;;;5056707;28;20176;-80
2021/07/27 06:49:32;;;;;;;18.47;16.23;;;20.00;91.00;;;;;;5056048;28;20197;-83
2021/07/27 06:52:01;;;;;;;23.17;15.87;;;20.10;88.70;;;;;;5056006;28;20210;-82
2021/07/27 06:54:27;;;;;;;21.37;15.37;;;20.10;87.60;;;;;;5054578;28;20261;-80
2021/07/27 06:56:56;;;;;;;23.87;15.87;;;20.20;85.80;;;;;;5056429;28;20256;-78
2021/07/27 06:59:25;;;;;;;21.27;15.00;;;20.30;79.40;;;;;;5056700;28;20170;-80
2021/07/27 07:01:51;;;;;;;17.20;14.43;;;20.40;76.90;;;;;;5056224;28;20171;-80
2021/07/27 07:04:17;;;;;;;18.27;15.27;;;20.40;77.00;;;;;;5056050;28;20194;-79
2021/07/27 07:06:43;;;;;;;20.73;15.00;;;20.40;76.60;;;;;;5062503;28;20181;-80
2021/07/27 07:09:08;;;;;;;19.90;15.97;;;20.60;73.40;;;;;;5078908;28;20205;-78
2021/07/27 07:11:35;;;;;;;20.10;15.80;;;20.70;67.20;;;;;;5078630;28;20238;-80
2021/07/27 07:14:01;;;;;;;17.73;14.97;;;20.70;62.90;;;;;;5079099;28;20152;-78
2021/07/27 07:16:27;;;;;;;20.20;16.00;;;20.80;59.30;;;;;;5077469;28;20159;-79
2021/07/27 07:18:52;;;;;;;18.47;16.57;;;20.80;58.50;;;;;;5076501;28;20197;-79
2021/07/27 07:21:21;;;;;;;20.77;16.67;;;20.60;62.30;;;;;;5060094;28;20190;-81
2021/07/27 07:23:48;;;;;;;21.40;17.33;;;20.60;61.40;;;;;;5052569;28;20711;-79
2021/07/27 07:26:13;;;;;;;21.77;17.67;;;20.60;59.90;;;;;;5054799;28;20158;-79
2021/07/27 07:28:39;;;;;;;21.37;17.43;;;20.50;62.50;;;;;;5054861;28;20319;-80
2021/07/27 07:31:16;;;;;;;20.93;16.77;;;20.60;63.40;;;;;;5054770;28;20199;-81
2021/07/27 07:33:42;;;;;;;23.67;17.97;;;20.60;62.10;;;;;;5055906;28;20165;-83
2021/07/27 07:36:10;;;;;;;22.03;17.00;;;20.50;63.60;;;;;;5055841;28;20182;-81
2021/07/27 07:38:36;;;;;;;20.80;16.40;;;20.60;60.80;;;;;;5063648;28;20181;-79
2021/07/27 07:41:06;;;;;;;24.20;17.60;;;20.60;57.50;;;;;;5079855;28;20189;-79
2021/07/27 07:43:31;;;;;;;24.03;17.63;;;20.80;52.70;;;;;;5072400;28;20221;-77
2021/07/27 07:45:57;;;;;;;21.17;17.03;;;20.80;51.50;;;;;;5068259;28;20693;-78
2021/07/27 07:48:23;;;;;;;21.50;17.03;;;20.90;50.00;;;;;;5068805;28;20172;-79
2021/07/27 07:50:48;;;;;;;19.63;16.00;;;20.90;44.40;;;;;;5057315;28;20693;-80
2021/07/27 07:53:14;;;;;;;18.87;16.17;;;20.90;42.40;;;;;;5058919;28;20222;-81
2021/07/27 07:55:40;;;;;;;22.70;15.60;;;20.80;43.40;;;;;;5059391;28;20179;-83
2021/07/27 07:58:05;;;;;;;21.20;16.30;;;20.70;44.40;;;;;;5061087;28;20546;-79
2021/07/27 08:00:31;;;;;;;18.10;16.20;;;20.90;40.90;;;;;;5069304;28;20250;-78
2021/07/27 08:03:00;;;;;;;19.97;15.97;;;20.70;41.90;;;;;;5076603;28;20190;-80
2021/07/27 08:05:26;;;;;;;18.57;16.60;;;20.60;44.50;;;;;;5081578;28;20171;-79
2021/07/27 08:07:51;;;;;;;18.10;16.13;;;20.80;46.70;;;;;;5079988;28;20186;-79
2021/07/27 08:10:17;;;;;;;20.13;17.17;;;20.90;41.50;;;;;;5080050;28;20170;-80
2021/07/27 08:12:46;;;;;;;18.20;16.20;;;21.10;32.00;;;;;;5082405;28;20182;-81
2021/07/27 08:15:11;;;;;;;20.10;17.33;;;21.10;27.60;;;;;;5077929;28;20170;-80
2021/07/27 08:17:38;;;;;;;20.60;16.97;;;21.00;27.00;;;;;;5076328;28;20188;-81
2021/07/27 08:20:05;;;;;;;20.07;16.33;;;21.00;24.40;;;;;;5081877;28;20188;-79
2021/07/27 08:22:31;;;;;;;18.73;16.67;;;20.90;24.30;;;;;;5077183;28;20220;-81
2021/07/27 08:24:56;;;;;;;20.53;17.13;;;20.90;16.90;;;;;;5074636;28;20501;-83
2021/07/27 08:27:22;;;;;;;19.67;17.37;;;20.70;22.00;;;;;;5074079;28;20555;-80
2021/07/27 08:29:48;;;;;;;19.60;17.60;;;20.70;21.40;;;;;;5073643;28;20536;-82
2021/07/27 08:32:13;;;;;;;20.87;17.53;;;20.80;24.00;;;;;;5073051;28;20527;-79
2021/07/27 08:34:44;;;;;;;23.37;18.23;;;20.60;29.60;;;;;;5072385;28;20180;-80
2021/07/27 08:37:10;;;;;;;21.50;17.83;;;20.60;35.80;;;;;;5073175;28;20714;-82
2021/07/27 08:39:36;;;;;;;20.80;17.50;;;20.60;37.30;;;;;;5078450;28;20304;-81
2021/07/27 08:42:04;;;;;;;19.23;17.17;;;20.60;36.10;;;;;;5078176;28;20177;-80
2021/07/27 08:44:31;;;;;;;19.43;16.77;;;20.60;32.50;;;;;;5074688;28;20165;-80
2021/07/27 08:47:05;;;;;;;20.17;18.07;;;20.60;36.50;;;;;;5074351;28;20195;-79
2021/07/27 08:49:31;;;;;;;20.47;18.17;;;20.50;41.80;;;;;;5073732;28;20174;-80
2021/07/27 08:51:57;;;;;;;19.93;17.83;;;20.40;44.40;;;;;;5073676;28;20215;-79
2021/07/27 08:54:24;;;;;;;20.03;17.23;;;20.60;42.10;;;;;;5071735;28;20642;-80
2021/07/27 08:56:51;;;;;;;20.50;17.40;;;20.40;44.20;;;;;;5073310;28;20260;-83
2021/07/27 08:59:18;;;;;;;25.73;18.77;;;20.30;50.30;;;;;;5073668;28;20291;-80
2021/07/27 09:01:44;;;;;;;21.53;18.47;;;20.20;54.00;;;;;;5073837;28;20176;-81
2021/07/27 09:04:10;;;;;;;20.43;18.23;;;20.30;56.00;;;;;;5070656;28;20660;-82
2021/07/27 09:06:37;;;;;;;21.23;17.87;;;20.30;55.70;;;;;;5060025;28;20628;-80
2021/07/27 09:09:07;;;;;;;21.57;18.67;;;20.40;57.50;;;;;;5071604;28;20184;-80
2021/07/27 09:11:49;;;;;;;21.47;18.50;;;20.40;55.00;;;;;;5072474;28;20208;-79
2021/07/27 09:14:17;;;;;;;19.87;17.77;;;20.30;56.50;;;;;;5073190;28;20163;-82
2021/07/27 09:16:51;;;;;;;20.20;16.47;;;20.20;56.20;;;;;;5072897;28;20184;-80
2021/07/27 09:19:17;;;;;;;19.27;17.27;;;20.20;55.60;;;;;;5073400;28;20695;-83
2021/07/27 09:21:43;;;;;;;20.93;18.80;;;20.20;55.50;;;;;;5073105;28;20179;-79
2021/07/27 09:24:10;;;;;;;20.07;17.13;;;20.30;55.90;;;;;;5073562;28;20656;-82
2021/07/27 09:26:36;;;;;;;18.83;16.87;;;20.40;55.40;;;;;;5072829;28;20166;-80
2021/07/27 09:29:04;;;;;;;24.20;21.57;;;20.30;54.90;;;;;;5072426;28;20193;-80
2021/07/27 09:31:30;;;;;;;20.97;16.93;;;20.60;50.50;;;;;;5073267;28;20199;-80
2021/07/27 09:33:56;;;;;;;19.93;15.53;;;20.60;38.10;;;;;;5074327;28;20179;-80
2021/07/27 09:36:25;;;;;;;18.60;16.23;;;20.70;30.30;;;;;;5073935;28;20255;-80
2021/07/27 09:39:02;;;;;;;16.70;14.90;;;20.80;24.40;;;;;;5072525;28;20332;-82
2021/07/27 09:41:29;;;;;;;17.70;14.93;;;20.90;14.40;;;;;;5073867;28;20216;-83
2021/07/27 09:43:59;;;;;;;18.30;14.93;;;21.00;7.60;;;;;;5073242;28;20276;-80
2021/07/27 09:46:27;;;;;;;16.87;15.07;;;21.10;8.60;;;;;;5073887;28;20182;-80
2021/07/27 09:48:53;;;;;;;16.47;14.73;;;21.20;1.00;;;;;;5076820;28;20242;-82
2021/07/27 09:51:20;;;;;;;17.20;14.60;;;21.40;1.00;;;;;;5076719;28;20301;-80
2021/07/27 09:53:47;;;;;;;18.30;14.33;;;21.50;1.00;;;;;;5075937;28;20636;-79
2021/07/27 09:56:13;;;;;;;16.07;14.37;;;21.80;1.00;;;;;;5075859;28;20230;-82
2021/07/27 09:58:40;;;;;;;16.20;13.23;;;22.00;1.00;;;;;;5077033;28;20247;-79
2021/07/27 10:01:27;;;;;;;15.83;14.07;;;22.30;1.00;;;;;;5076340;28;20253;-79
2021/07/27 10:03:59;;;;;;;15.20;12.87;;;22.60;1.00;;;;;;5075641;28;20176;-80
2021/07/27 10:06:28;;;;;;;16.53;12.30;;;22.50;1.00;;;;;;5076531;28;20181;-80
2021/07/27 10:09:01;;;;;;;14.33;12.40;;;22.60;1.00;;;;;;5075299;28;20181;-81
2021/07/27 10:11:47;;;;;;;14.17;11.00;;;22.80;1.00;;;;;;5076647;28;20225;-80
2021/07/27 10:14:15;;;;;;;13.47;11.40;;;22.90;1.00;;;;;;5072939;28;20178;-81
2021/07/27 10:16:41;;;;;;;14.10;11.60;;;22.90;1.00;;;;;;5072492;28;20542;-80
2021/07/27 10:19:21;;;;;;;13.07;11.67;;;22.90;1.00;;;;;;5075888;28;20168;-81
2021/07/27 10:22:00;;;;;;;12.73;11.40;;;23.00;1.00;;;;;;5075708;28;20169;-80
2021/07/27 10:24:44;;;;;;;16.27;12.37;;;22.90;1.00;;;;;;5075569;28;20274;-79
2021/07/27 10:27:16;;;;;;;14.43;12.60;;;22.70;1.00;;;;;;5076831;28;20170;-80
2021/07/27 10:29:44;;;;;;;14.60;12.27;;;22.60;1.00;;;;;;5076989;28;20168;-81
2021/07/27 10:32:23;;;;;;;13.67;12.27;;;22.70;1.00;;;;;;5075741;28;20301;-79
2021/07/27 10:34:52;;;;;;;17.30;12.03;;;22.90;1.00;;;;;;5077801;28;20184;-80
2021/07/27 10:37:18;;;;;;;15.27;11.83;;;23.10;1.00;;;;;;5075927;28;20239;-78
2021/07/27 10:39:48;;;;;;;13.73;11.77;;;23.20;1.00;;;;;;5077229;28;20166;-80
2021/07/27 10:42:14;;;;;;;13.90;11.17;;;23.20;1.00;;;;;;5076171;28;20173;-80
2021/07/27 10:44:40;;;;;;;14.60;11.27;;;23.30;1.00;;;;;;5078159;28;20181;-83
2021/07/27 10:47:05;;;;;;;13.67;11.20;;;23.40;1.00;;;;;;5079021;28;20707;-80
2021/07/27 10:49:31;;;;;;;15.20;11.47;;;23.50;1.00;;;;;;5094679;28;20171;-82
2021/07/27 10:52:02;;;;;;;14.93;10.43;;;23.70;99.90;;;;;;5096560;28;20215;-79
2021/07/27 10:54:30;;;;;;;15.67;10.77;;;23.80;99.90;;;;;;5084059;28;20164;-78
2021/07/27 10:57:06;;;;;;;13.43;10.63;;;23.80;99.90;;;;;;5077421;28;20163;-80
2021/07/27 10:59:45;;;;;;;14.73;10.73;;;24.00;1.00;;;;;;5075594;28;20258;-79
2021/07/27 11:02:12;;;;;;;13.87;10.97;;;24.00;1.00;;;;;;5075825;28;20155;-79
2021/07/27 11:04:38;;;;;;;13.87;10.77;;;24.00;99.90;;;;;;5075771;28;20164;-80
2021/07/27 11:07:11;;;;;;;12.77;9.90;;;24.00;1.00;;;;;;5081320;28;20267;-80
2021/07/27 11:09:56;;;;;;;11.97;9.23;;;23.80;1.00;;;;;;5081933;28;20179;-82
2021/07/27 11:12:48;;;;;;;14.27;9.63;;;23.80;1.00;;;;;;5086703;28;20215;-80
2021/07/27 11:15:18;;;;;;;14.40;9.53;;;23.80;99.90;;;;;;5076315;28;20293;-81
2021/07/27 11:17:50;;;;;;;13.03;9.50;;;23.70;1.00;;;;;;5076172;28;20212;-79
2021/07/27 11:20:25;;;;;;;12.47;10.50;;;23.60;99.90;;;;;;5087907;28;20179;-81
2021/07/27 11:22:55;;;;;;;14.87;10.57;;;23.80;96.40;;;;;;5098487;28;20175;-82
2021/07/27 11:25:26;;;;;;;12.33;11.00;;;23.90;99.90;;;;;;5098917;28;20191;-80
2021/07/27 11:27:53;;;;;;;14.87;11.03;;;23.90;1.00;;;;;;5098441;28;20195;-82
2021/07/27 11:30:20;;;;;;;12.63;11.30;;;23.90;99.90;;;;;;5097842;28;20207;-82
2021/07/27 11:32:50;;;;;;;15.23;11.13;;;23.70;1.00;;;;;;5085157;28;20279;-79
2021/07/27 11:35:25;;;;;;;14.40;11.37;;;23.60;1.00;;;;;;5079957;28;20174;-79
2021/07/27 11:38:03;;;;;;;14.73;11.40;;;23.60;1.00;;;;;;5077095;28;20171;-80
2021/07/27 11:40:29;;;;;;;14.40;10.53;;;23.40;1.00;;;;;;5076668;28;20155;-81
2021/07/27 11:43:05;;;;;;;16.10;12.40;;;23.50;1.00;;;;;;5075145;28;20662;-81
2021/07/27 11:45:31;;;;;;;14.23;11.07;;;23.60;99.90;;;;;;5074837;28;20669;-82
2021/07/27 11:47:57;;;;;;;15.67;12.00;;;23.80;99.90;;;;;;5065952;28;20185;-79
2021/07/27 11:50:31;;;;;;;14.80;11.00;;;24.00;1.00;;;;;;5054781;28;20522;-81
2021/07/27 11:53:03;;;;;;;12.67;11.40;;;24.00;1.00;;;;;;5059985;28;20190;-81
2021/07/27 11:55:32;;;;;;;12.97;11.67;;;24.00;1.00;;;;;;5078500;28;20166;-81
2021/07/27 11:57:58;;;;;;;12.30;10.57;;;24.00;99.90;;;;;;5078021;28;20156;-80
2021/07/27 12:00:24;;;;;;;13.10;11.37;;;24.10;1.00;;;;;;5078040;28;20191;-79
2021/07/27 12:02:50;;;;;;;13.37;11.27;;;24.20;99.90;;;;;;5078145;28;20177;-80
2021/07/27 12:05:16;;;;;;;13.93;11.13;;;24.30;99.90;;;;;;5076083;28;20203;-81
2021/07/27 12:07:45;;;;;;;15.10;11.20;;;24.30;1.00;;;;;;5060803;28;20708;-81
2021/07/27 12:10:13;;;;;;;15.43;11.03;;;24.30;1.00;;;;;;5055743;28;20214;-82
2021/07/27 12:12:39;;;;;;;12.30;11.03;;;24.20;99.90;;;;;;5061001;28;20652;-83
2021/07/27 12:15:06;;;;;;;17.43;11.90;;;24.20;1.00;;;;;;5058879;28;20232;-79
2021/07/27 12:17:32;;;;;;;15.57;11.37;;;24.20;1.00;;;;;;5063776;28;20640;-79
2021/07/27 12:19:57;;;;;;;12.53;11.23;;;24.40;1.00;;;;;;5062084;28;20187;-80
2021/07/27 12:22:23;;;;;;;12.77;11.17;;;24.40;1.00;;;;;;5067718;28;20251;-80
2021/07/27 12:24:49;;;;;;;13.27;11.63;;;24.40;1.00;;;;;;5071311;28;20224;-81
2021/07/27 12:27:14;;;;;;;16.07;11.87;;;24.30;99.90;;;;;;5058003;28;20196;-78
2021/07/27 12:29:40;;;;;;;14.20;11.63;;;24.10;99.90;;;;;;5054149;28;20539;-81
2021/07/27 12:32:07;;;;;;;12.93;11.13;;;23.90;99.90;;;;;;5053965;28;20216;-85
2021/07/27 12:34:34;;;;;;;12.60;10.70;;;24.00;1.00;;;;;;5056755;28;20219;-82
2021/07/27 12:37:00;;;;;;;13.80;10.57;;;23.90;1.00;;;;;;5056102;28;20164;-82
2021/07/27 12:39:26;;;;;;;13.80;9.60;;;23.80;1.00;;;;;;5053286;28;20646;-81
2021/07/27 12:41:52;;;;;;;11.10;9.90;;;23.90;99.90;;;;;;5054546;28;20183;-80
2021/07/27 12:44:18;;;;;;;13.70;9.53;;;23.90;99.90;;;;;;5054366;28;20375;-81
2021/07/27 12:46:44;;;;;;;11.43;10.23;;;23.60;1.00;;;;;;5053672;28;20208;-83
2021/07/27 12:49:13;;;;;;;15.20;9.73;;;23.70;99.90;;;;;;5053835;28;20552;-83
2021/07/27 12:51:40;;;;;;;15.17;9.63;;;23.90;29.60;;;;;;5053955;28;20738;-81
2021/07/27 12:54:07;;;;;;;11.57;8.70;;;23.80;1.00;;;;;;5053540;28;20168;-79
2021/07/27 12:56:37;;;;;;;11.17;9.10;;;23.80;1.00;;;;;;5053766;28;20184;-82